createdAt,value
2022-12-14T00:01:19.196Z,12.47
2022-12-14T00:03:46.568Z,12.20
2022-12-14T00:06:14.315Z,12.10
2022-12-14T00:08:42.019Z,14.80
2022-12-14T00:11:09.041Z,12.40
2022-12-14T00:13:35.835Z,12.10
2022-12-14T00:16:16.311Z,13.40
2022-12-14T00:18:44.191Z,12.80
2022-12-14T00:21:13.743Z,13.47
2022-12-14T00:23:43.508Z,12.47
2022-12-14T00:26:11.928Z,13.07
2022-12-14T00:28:38.598Z,12.73
2022-12-14T00:31:05.449Z,13.43
2022-12-14T00:33:32.748Z,13.30
2022-12-14T00:35:59.707Z,12.83
2022-12-14T00:38:26.761Z,10.83
2022-12-14T00:40:54.708Z,14.43
2022-12-14T00:43:22.128Z,11.50
2022-12-14T00:45:49.042Z,12.70
2022-12-14T00:48:15.642Z,12.60
2022-12-14T00:50:44.473Z,11.20
2022-12-14T00:53:15.629Z,12.07
2022-12-14T00:55:44.348Z,12.00
2022-12-14T00:58:17.749Z,11.13
2022-12-14T01:00:44.531Z,11.97
2022-12-14T01:03:12.047Z,10.50
2022-12-14T01:05:39.206Z,11.13
2022-12-14T01:08:06.672Z,11.77
2022-12-14T01:10:33.361Z,12.23
2022-12-14T01:12:59.806Z,10.70
2022-12-14T01:15:26.301Z,12.70
2022-12-14T01:17:52.954Z,10.87
2022-12-14T01:20:19.922Z,11.13
2022-12-14T01:22:46.515Z,10.03
2022-12-14T01:25:12.988Z,11.30
2022-12-14T01:27:39.542Z,10.10
2022-12-14T01:30:06.538Z,11.10
2022-12-14T01:32:34.826Z,10.30
2022-12-14T01:35:01.539Z,10.50
2022-12-14T01:37:28.958Z,11.30
2022-12-14T01:39:55.495Z,9.40
2022-12-14T01:42:22.223Z,10.43
2022-12-14T01:44:54.206Z,11.83
2022-12-14T01:47:28.967Z,10.27
2022-12-14T01:50:00.124Z,10.00
2022-12-14T01:52:28.870Z,11.03
2022-12-14T01:55:12.006Z,10.70
2022-12-14T01:57:49.127Z,10.87
2022-12-14T02:00:16.895Z,9.00
2022-12-14T02:02:52.620Z,9.90
2022-12-14T02:05:21.182Z,12.17
2022-12-14T02:07:49.201Z,9.00
2022-12-14T02:10:15.986Z,10.87
2022-12-14T02:12:49.264Z,9.63
2022-12-14T02:15:16.741Z,10.13
2022-12-14T02:17:44.512Z,9.13
2022-12-14T02:20:12.199Z,9.33
2022-12-14T02:22:57.485Z,9.17
2022-12-14T02:25:44.830Z,9.20
2022-12-14T02:28:43.289Z,8.67
2022-12-14T02:31:22.105Z,8.70
2022-12-14T02:33:54.610Z,8.50
2022-12-14T02:36:28.616Z,8.83
2022-12-14T02:39:04.272Z,9.63
2022-12-14T02:41:38.424Z,8.60
2022-12-14T02:44:16.320Z,7.97
2022-12-14T02:46:58.173Z,8.47
2022-12-14T02:49:49.441Z,9.03
2022-12-14T02:52:22.346Z,9.17
2022-12-14T02:54:48.824Z,9.10
2022-12-14T02:57:23.814Z,8.17
2022-12-14T02:59:52.581Z,8.20
2022-12-14T03:02:19.207Z,8.27
2022-12-14T03:04:49.780Z,9.20
2022-12-14T03:07:37.673Z,8.87
2022-12-14T03:10:30.934Z,7.97
2022-12-14T03:13:03.387Z,8.90
2022-12-14T03:15:29.940Z,9.93
2022-12-14T03:17:58.321Z,8.83
2022-12-14T03:20:36.053Z,8.73
2022-12-14T03:23:16.754Z,8.27
2022-12-14T03:25:54.087Z,10.40
2022-12-14T03:28:24.553Z,8.60
2022-12-14T03:31:00.625Z,8.77
2022-12-14T03:33:29.601Z,9.47
2022-12-14T03:36:14.915Z,8.10
2022-12-14T03:38:44.764Z,7.73
2022-12-14T03:41:21.491Z,8.90
2022-12-14T03:44:19.245Z,9.70
2022-12-14T03:47:23.468Z,9.83
2022-12-14T03:50:19.548Z,7.37
2022-12-14T03:53:03.454Z,9.40
2022-12-14T03:55:36.700Z,8.50
2022-12-14T03:58:24.570Z,9.90
2022-12-14T04:01:08.979Z,9.43
2022-12-14T04:03:46.376Z,8.70
2022-12-14T04:06:26.369Z,10.00
2022-12-14T04:09:12.401Z,9.10
2022-12-14T04:12:04.204Z,8.20
2022-12-14T04:14:53.497Z,10.27
2022-12-14T04:17:43.492Z,9.00
2022-12-14T04:20:16.874Z,7.73
2022-12-14T04:22:49.954Z,8.30
2022-12-14T04:25:40.124Z,9.43
2022-12-14T04:28:44.117Z,8.33
2022-12-14T04:31:14.899Z,7.70
2022-12-14T04:33:47.622Z,8.77
2022-12-14T04:36:24.532Z,7.40
2022-12-14T04:38:55.219Z,8.77
2022-12-14T04:41:25.198Z,8.47
2022-12-14T04:43:54.211Z,8.80
2022-12-14T04:46:25.438Z,9.93
2022-12-14T04:49:12.853Z,7.90
2022-12-14T04:52:05.996Z,8.53
2022-12-14T04:54:48.579Z,9.37
2022-12-14T04:57:24.314Z,8.57
2022-12-14T04:59:51.147Z,9.37
2022-12-14T05:02:39.495Z,9.27
2022-12-14T05:05:19.490Z,9.40
2022-12-14T05:08:07.314Z,8.37
2022-12-14T05:10:39.774Z,8.70
2022-12-14T05:13:22.400Z,9.27
2022-12-14T05:15:50.593Z,8.53
2022-12-14T05:18:17.464Z,11.47
2022-12-14T05:20:46.483Z,10.60
2022-12-14T05:23:13.104Z,8.47
2022-12-14T05:25:39.632Z,9.53
2022-12-14T05:28:06.578Z,9.90
2022-12-14T05:30:34.005Z,9.43
2022-12-14T05:33:00.554Z,9.63
2022-12-14T05:35:27.142Z,8.73
2022-12-14T05:37:53.657Z,9.47
2022-12-14T05:40:20.119Z,9.30
2022-12-14T05:42:49.874Z,8.80
2022-12-14T05:45:20.448Z,9.50
2022-12-14T05:47:46.942Z,9.83
2022-12-14T05:50:13.428Z,10.33
2022-12-14T05:52:39.876Z,8.70
2022-12-14T05:55:07.040Z,8.60
2022-12-14T05:57:33.502Z,7.73
2022-12-14T06:00:00.257Z,8.13
2022-12-14T06:02:27.177Z,8.13
2022-12-14T06:04:53.688Z,8.37
2022-12-14T06:07:25.929Z,8.70
2022-12-14T06:09:54.093Z,8.30
2022-12-14T06:12:20.629Z,9.80
2022-12-14T06:14:47.113Z,10.90
2022-12-14T06:17:13.726Z,7.77
2022-12-14T06:19:40.154Z,7.87
2022-12-14T06:22:06.711Z,9.67
2022-12-14T06:24:33.665Z,8.97
2022-12-14T06:27:00.236Z,8.30
2022-12-14T06:29:28.792Z,8.00
2022-12-14T06:31:55.321Z,8.80
2022-12-14T06:34:26.506Z,10.60
2022-12-14T06:36:55.216Z,9.03
2022-12-14T06:39:21.742Z,8.93
2022-12-14T06:41:51.776Z,10.53
2022-12-14T06:44:18.519Z,10.63
2022-12-14T06:46:45.122Z,11.80
2022-12-14T06:49:14.696Z,12.03
2022-12-14T06:51:41.684Z,10.57
2022-12-14T06:54:10.819Z,9.30
2022-12-14T06:56:37.918Z,10.23
2022-12-14T06:59:05.365Z,9.23
2022-12-14T07:01:32.264Z,9.73
2022-12-14T07:03:59.553Z,8.27
2022-12-14T07:06:27.871Z,13.20
2022-12-14T07:08:58.070Z,10.00
2022-12-14T07:11:25.953Z,10.47
2022-12-14T07:13:53.195Z,9.90
2022-12-14T07:16:23.310Z,9.70
2022-12-14T07:18:50.623Z,11.57
2022-12-14T07:21:18.425Z,11.00
2022-12-14T07:23:45.930Z,10.60
2022-12-14T07:26:13.656Z,10.33
2022-12-14T07:28:41.017Z,10.60
2022-12-14T07:31:11.819Z,10.20
2022-12-14T07:33:38.655Z,9.03
2022-12-14T07:36:10.722Z,10.33
2022-12-14T07:38:38.685Z,10.10
2022-12-14T07:41:11.014Z,10.70
2022-12-14T07:43:39.145Z,10.10
2022-12-14T07:46:09.808Z,9.87
2022-12-14T07:48:36.598Z,10.10
2022-12-14T07:51:08.727Z,10.17
2022-12-14T07:53:37.048Z,9.57
2022-12-14T07:56:08.696Z,11.70
2022-12-14T07:58:36.239Z,10.50
2022-12-14T08:01:11.335Z,10.80
2022-12-14T08:03:39.234Z,10.40
2022-12-14T08:06:07.073Z,10.03
2022-12-14T08:08:33.730Z,10.17
2022-12-14T08:11:01.146Z,10.23
2022-12-14T08:13:28.343Z,10.80
2022-12-14T08:15:55.081Z,10.37
2022-12-14T08:18:21.715Z,10.30
2022-12-14T08:20:53.386Z,11.13
2022-12-14T08:23:20.467Z,11.03
2022-12-14T08:25:54.208Z,10.13
2022-12-14T08:28:21.221Z,12.23
2022-12-14T08:30:47.781Z,12.60
2022-12-14T08:33:14.343Z,11.03
2022-12-14T08:35:41.045Z,10.13
2022-12-14T08:38:08.245Z,11.73
2022-12-14T08:40:35.783Z,11.40
2022-12-14T08:43:02.348Z,12.40
2022-12-14T08:45:28.849Z,12.00
2022-12-14T08:47:58.884Z,11.53
2022-12-14T08:50:26.039Z,10.33
2022-12-14T08:52:53.191Z,11.80
2022-12-14T08:55:25.709Z,11.30
2022-12-14T08:57:54.970Z,12.40
2022-12-14T09:00:21.490Z,10.63
2022-12-14T09:02:51.496Z,11.50
2022-12-14T09:05:18.438Z,9.47
2022-12-14T09:07:45.200Z,11.70
2022-12-14T09:10:12.597Z,11.83
2022-12-14T09:12:39.443Z,11.20
2022-12-14T09:15:06.790Z,11.90
2022-12-14T09:17:34.402Z,12.33
2022-12-14T09:20:01.987Z,10.60
2022-12-14T09:22:28.689Z,11.90
2022-12-14T09:24:55.204Z,12.03
2022-12-14T09:27:22.519Z,13.20
2022-12-14T09:29:50.011Z,12.07
2022-12-14T09:32:16.815Z,10.57
2022-12-14T09:34:43.279Z,12.10
2022-12-14T09:37:09.863Z,10.30
2022-12-14T09:39:37.226Z,10.17
2022-12-14T09:42:33.081Z,10.30
2022-12-14T09:45:05.626Z,10.80
2022-12-14T09:47:50.257Z,11.63
2022-12-14T09:50:19.525Z,10.83
2022-12-14T09:52:48.987Z,9.43
2022-12-14T09:55:20.231Z,10.37
2022-12-14T09:57:48.705Z,10.33
2022-12-14T10:00:20.039Z,10.63
2022-12-14T10:03:06.913Z,9.90
2022-12-14T10:05:53.031Z,9.00
2022-12-14T10:08:37.760Z,10.00
2022-12-14T10:11:14.337Z,10.00
2022-12-14T10:14:19.969Z,9.60
2022-12-14T10:17:01.688Z,10.70
2022-12-14T10:19:46.527Z,9.77
2022-12-14T10:22:16.712Z,8.33
2022-12-14T10:24:48.836Z,9.27
2022-12-14T10:27:24.335Z,9.80
2022-12-14T10:29:57.199Z,11.07
2022-12-14T10:32:45.742Z,10.07
2022-12-14T10:35:16.944Z,10.00
2022-12-14T10:37:45.758Z,10.10
2022-12-14T10:40:32.558Z,10.80
2022-12-14T10:43:05.414Z,10.70
2022-12-14T10:45:50.262Z,10.07
2022-12-14T10:48:29.330Z,9.20
2022-12-14T10:51:02.251Z,9.80
2022-12-14T10:53:41.167Z,9.83
2022-12-14T10:56:14.661Z,11.03
2022-12-14T10:58:41.244Z,10.83
2022-12-14T11:01:13.534Z,11.00
2022-12-14T11:03:42.288Z,12.70
2022-12-14T11:06:17.549Z,10.83
2022-12-14T11:08:48.107Z,9.07
2022-12-14T11:11:21.295Z,10.90
2022-12-14T11:14:07.986Z,10.60
2022-12-14T11:16:39.900Z,11.60
2022-12-14T11:19:16.019Z,11.63
2022-12-14T11:21:42.893Z,12.13
2022-12-14T11:24:24.162Z,10.77
2022-12-14T11:26:52.887Z,10.93
2022-12-14T11:29:23.960Z,11.60
2022-12-14T11:31:53.830Z,11.50
2022-12-14T11:34:38.429Z,11.87
2022-12-14T11:37:21.491Z,14.47
2022-12-14T11:39:53.675Z,12.97
2022-12-14T11:42:20.867Z,10.97
2022-12-14T11:44:49.394Z,13.40
2022-12-14T11:47:18.836Z,11.73
2022-12-14T11:49:48.088Z,11.70
2022-12-14T11:52:18.300Z,12.80
2022-12-14T11:54:49.564Z,11.50
2022-12-14T11:57:31.085Z,12.87
2022-12-14T12:00:07.275Z,12.30
2022-12-14T12:02:33.823Z,12.87
2022-12-14T12:05:05.939Z,12.00
2022-12-14T12:07:34.846Z,10.50
2022-12-14T12:10:13.701Z,10.40
2022-12-14T12:12:55.246Z,11.90
2022-12-14T12:15:43.308Z,11.40
2022-12-14T12:18:27.667Z,11.70
2022-12-14T12:20:57.386Z,14.70
2022-12-14T12:23:30.734Z,12.67
2022-12-14T12:25:58.959Z,11.50
2022-12-14T12:28:32.129Z,10.33
2022-12-14T12:31:10.384Z,10.37
2022-12-14T12:33:46.848Z,11.60
2022-12-14T12:36:20.457Z,11.90
2022-12-14T12:39:12.531Z,12.23
2022-12-14T12:42:05.523Z,12.97
2022-12-14T12:44:50.701Z,11.90
2022-12-14T12:47:27.941Z,11.77
2022-12-14T12:50:09.482Z,14.50
2022-12-14T12:53:03.255Z,12.93
2022-12-14T12:55:34.459Z,15.80
2022-12-14T12:58:02.981Z,12.60
2022-12-14T13:00:30.502Z,11.90
2022-12-14T13:03:45.088Z,12.03
2022-12-14T13:06:25.294Z,12.60
2022-12-14T13:08:58.245Z,15.00
2022-12-14T13:11:31.740Z,13.07
2022-12-14T13:14:03.696Z,15.10
2022-12-14T13:16:34.001Z,12.80
2022-12-14T13:19:25.437Z,14.00
2022-12-14T13:21:55.158Z,14.13
2022-12-14T13:24:23.888Z,13.37
2022-12-14T13:26:58.247Z,11.90
2022-12-14T13:29:40.346Z,12.57
2022-12-14T13:32:33.789Z,11.47
2022-12-14T13:35:41.075Z,12.23
2022-12-14T13:38:17.239Z,10.93
2022-12-14T13:40:46.981Z,11.27
2022-12-14T13:43:20.952Z,13.23
2022-12-14T13:45:50.035Z,12.17
2022-12-14T13:48:25.312Z,12.93
2022-12-14T13:51:03.637Z,12.77
2022-12-14T13:53:43.613Z,12.90
2022-12-14T13:56:27.825Z,12.60
2022-12-14T13:59:00.434Z,12.10
2022-12-14T14:01:45.606Z,11.57
2022-12-14T14:04:15.117Z,12.33
2022-12-14T14:06:54.941Z,14.20
2022-12-14T14:09:30.512Z,11.90
2022-12-14T14:12:21.859Z,12.60
2022-12-14T14:14:58.581Z,12.10
2022-12-14T14:17:28.141Z,12.80
2022-12-14T14:19:56.483Z,12.60
2022-12-14T14:22:29.801Z,11.47
2022-12-14T14:25:09.388Z,13.80
2022-12-14T14:27:38.636Z,15.17
2022-12-14T14:30:28.213Z,15.30
2022-12-14T14:33:07.635Z,13.80
2022-12-14T14:35:40.165Z,14.57
2022-12-14T14:38:31.306Z,12.77
2022-12-14T14:41:17.375Z,13.93
2022-12-14T14:43:51.519Z,14.17
2022-12-14T14:46:22.909Z,13.27
2022-12-14T14:48:54.066Z,14.87
2022-12-14T14:51:25.345Z,14.13
2022-12-14T14:54:46.172Z,14.07
2022-12-14T14:57:53.844Z,13.70
2022-12-14T15:00:20.366Z,15.70
2022-12-14T15:02:47.329Z,14.43
2022-12-14T15:08:34.742Z,14.80
2022-12-14T15:11:11.375Z,13.90
2022-12-14T15:13:46.604Z,14.93
2022-12-14T15:16:25.081Z,14.87
2022-12-14T15:18:51.946Z,14.50
2022-12-14T15:21:19.238Z,16.27
2022-12-14T15:23:51.587Z,14.10
2022-12-14T15:26:28.956Z,14.87
2022-12-14T15:28:58.185Z,16.30
2022-12-14T15:31:33.152Z,16.13
2022-12-14T15:34:00.332Z,18.07
2022-12-14T15:36:30.202Z,16.57
2022-12-14T15:38:57.720Z,16.83
2022-12-14T15:41:27.518Z,16.63
2022-12-14T15:43:59.742Z,16.10
2022-12-14T15:46:33.773Z,15.23
2022-12-14T15:49:03.618Z,15.60
2022-12-14T15:51:37.388Z,17.83
2022-12-14T15:54:06.159Z,16.90
2022-12-14T15:56:44.667Z,16.80
2022-12-14T15:59:17.708Z,15.80
2022-12-14T16:01:54.383Z,17.27
2022-12-14T16:04:23.428Z,15.90
2022-12-14T16:07:04.487Z,18.07
2022-12-14T16:09:38.926Z,18.00
2022-12-14T16:12:15.592Z,18.37
2022-12-14T16:14:50.742Z,19.73
2022-12-14T16:17:22.323Z,18.40
2022-12-14T16:20:00.026Z,18.90
2022-12-14T16:22:31.995Z,18.43
2022-12-14T16:25:01.818Z,18.73
2022-12-14T16:27:29.872Z,17.23
2022-12-14T16:30:17.487Z,17.70
2022-12-14T16:32:50.161Z,18.00
2022-12-14T16:35:21.330Z,17.60
2022-12-14T16:37:51.348Z,18.90
2022-12-14T16:40:39.620Z,15.97
2022-12-14T16:43:08.008Z,16.13
2022-12-14T16:45:44.156Z,15.13
2022-12-14T16:48:18.109Z,15.93
2022-12-14T16:51:07.909Z,14.47
2022-12-14T16:53:31.387Z,15.60
2022-12-14T16:56:04.073Z,16.60
2022-12-14T16:58:30.890Z,14.47
2022-12-14T17:01:03.583Z,16.50
2022-12-14T17:03:31.925Z,13.70
2022-12-14T17:06:01.003Z,16.10
2022-12-14T17:08:27.749Z,15.73
2022-12-14T17:10:54.951Z,16.37
2022-12-14T17:13:23.873Z,15.97
2022-12-14T17:16:00.103Z,15.47
2022-12-14T17:18:39.595Z,16.10
2022-12-14T17:21:07.627Z,15.80
2022-12-14T17:23:36.921Z,15.17
2022-12-14T17:26:03.944Z,14.73
2022-12-14T17:28:34.603Z,14.23
2022-12-14T17:31:02.743Z,15.27
2022-12-14T17:33:30.291Z,14.33
2022-12-14T17:35:57.204Z,14.83
2022-12-14T17:38:23.804Z,13.93
2022-12-14T17:40:50.915Z,15.70
2022-12-14T17:43:24.880Z,14.63
2022-12-14T17:45:51.453Z,16.00
2022-12-14T17:48:18.193Z,15.90
2022-12-14T17:50:47.248Z,14.67
2022-12-14T17:53:20.773Z,14.13
2022-12-14T17:55:47.358Z,15.30
2022-12-14T17:58:13.860Z,16.07
2022-12-14T18:00:59.473Z,15.47
2022-12-14T18:03:26.815Z,16.70
2022-12-14T18:05:54.103Z,16.80
2022-12-14T18:08:22.609Z,16.40
2022-12-14T18:10:56.784Z,17.07
2022-12-14T18:13:23.414Z,18.50
2022-12-14T18:15:51.664Z,18.90
2022-12-14T18:18:19.761Z,18.20
2022-12-14T18:20:53.114Z,17.70
2022-12-14T18:23:21.296Z,18.03
2022-12-14T18:25:56.282Z,19.37
2022-12-14T18:28:23.462Z,18.10
2022-12-14T18:30:53.488Z,17.57
2022-12-14T18:33:23.771Z,17.83
2022-12-14T18:35:51.020Z,18.60
2022-12-14T18:38:17.575Z,19.00
2022-12-14T18:40:49.638Z,20.73
2022-12-14T18:43:23.563Z,20.93
2022-12-14T18:45:53.915Z,22.23
2022-12-14T18:48:21.575Z,25.03
2022-12-14T18:50:49.925Z,24.10
2022-12-14T18:53:18.481Z,23.13
2022-12-14T18:55:45.004Z,22.10
2022-12-14T18:58:20.970Z,21.43
2022-12-14T19:00:48.792Z,21.97
2022-12-14T19:03:15.481Z,22.37
2022-12-14T19:05:42.246Z,19.20
2022-12-14T19:08:10.315Z,21.90
2022-12-14T19:10:39.680Z,19.63
2022-12-14T19:13:06.258Z,19.30
2022-12-14T19:15:34.670Z,21.40
2022-12-14T19:18:01.464Z,21.50
2022-12-14T19:20:29.273Z,20.37
2022-12-14T19:22:56.104Z,20.30
2022-12-14T19:25:23.536Z,22.10
2022-12-14T19:30:38.963Z,21.93
2022-12-14T19:33:05.545Z,20.40
2022-12-14T19:35:32.099Z,22.40
2022-12-14T19:37:58.686Z,24.03
2022-12-14T19:40:27.047Z,25.17
2022-12-14T19:42:55.840Z,25.27
2022-12-14T19:45:23.619Z,23.17
2022-12-14T19:47:50.368Z,22.30
2022-12-14T19:50:17.232Z,22.03
2022-12-14T19:52:44.053Z,22.97
2022-12-14T19:55:11.815Z,20.47
2022-12-14T19:57:42.653Z,22.63
2022-12-14T20:00:12.898Z,22.07
2022-12-14T20:02:39.894Z,23.73
2022-12-14T20:05:07.355Z,22.27
2022-12-14T20:07:37.397Z,22.97
2022-12-14T20:10:08.283Z,21.87
2022-12-14T20:12:35.199Z,22.47
2022-12-14T20:15:01.831Z,21.47
2022-12-14T20:17:28.386Z,20.80
2022-12-14T20:19:55.034Z,22.47
2022-12-14T20:22:23.780Z,23.50
2022-12-14T20:24:51.390Z,21.03
2022-12-14T20:27:19.924Z,23.87
2022-12-14T20:29:47.460Z,21.50
2022-12-14T20:32:14.282Z,24.00
2022-12-14T20:34:42.055Z,23.20
2022-12-14T20:37:08.707Z,23.87
2022-12-14T20:39:35.248Z,22.63
2022-12-14T20:42:01.757Z,23.50
2022-12-14T20:44:28.940Z,22.73
2022-12-14T20:46:55.479Z,23.10
2022-12-14T20:49:23.533Z,22.50
2022-12-14T20:51:50.047Z,24.30
2022-12-14T20:54:18.825Z,22.33
2022-12-14T20:56:49.729Z,23.10
2022-12-14T20:59:17.060Z,22.50
2022-12-14T21:01:44.172Z,23.43
2022-12-14T21:04:10.833Z,22.50
2022-12-14T21:06:39.641Z,24.13
2022-12-14T21:09:09.508Z,22.50
2022-12-14T21:11:56.105Z,23.07
2022-12-14T21:14:24.351Z,24.47
2022-12-14T21:16:50.918Z,28.90
2022-12-14T21:19:17.754Z,26.93
2022-12-14T21:21:49.699Z,27.30
2022-12-14T21:24:37.263Z,28.03
2022-12-14T21:27:08.084Z,28.30
2022-12-14T21:29:34.803Z,27.93
2022-12-14T21:32:01.537Z,30.20
2022-12-14T21:34:28.476Z,28.83
2022-12-14T21:36:54.995Z,29.20
2022-12-14T21:39:21.507Z,26.77
2022-12-14T21:42:06.820Z,23.43
2022-12-14T21:44:37.000Z,25.47
2022-12-14T21:47:05.783Z,24.70
2022-12-14T21:49:32.522Z,23.83
2022-12-14T21:51:59.087Z,24.50
2022-12-14T21:54:26.071Z,25.07
2022-12-14T21:57:11.032Z,24.90
2022-12-14T21:59:42.515Z,23.07
2022-12-14T22:02:18.985Z,22.67
2022-12-14T22:04:46.631Z,23.50
2022-12-14T22:07:18.376Z,24.07
2022-12-14T22:09:49.450Z,22.70
2022-12-14T22:12:17.346Z,22.80
2022-12-14T22:14:43.907Z,23.23
2022-12-14T22:17:11.426Z,23.40
2022-12-14T22:19:37.925Z,23.50
2022-12-14T22:22:05.151Z,23.70
2022-12-14T22:24:31.855Z,21.67
2022-12-14T22:26:59.383Z,21.90
2022-12-14T22:29:25.934Z,20.73
2022-12-14T22:31:52.577Z,21.53
2022-12-14T22:34:21.850Z,23.47
2022-12-14T22:36:49.995Z,21.23
2022-12-14T22:39:17.645Z,22.13
2022-12-14T22:41:44.600Z,21.27
2022-12-14T22:44:12.632Z,20.03
2022-12-14T22:46:40.222Z,22.23
2022-12-14T22:49:07.013Z,20.60
2022-12-14T22:51:33.528Z,19.77
2022-12-14T22:54:00.051Z,19.93
2022-12-14T22:56:31.320Z,22.30
2022-12-14T22:58:57.758Z,20.73
2022-12-14T23:01:24.643Z,21.70
2022-12-14T23:03:52.752Z,21.90
2022-12-14T23:06:20.115Z,19.10
2022-12-14T23:09:06.737Z,19.93
2022-12-14T23:11:52.923Z,20.20
2022-12-14T23:14:38.679Z,22.20
2022-12-14T23:17:24.760Z,19.27
2022-12-14T23:20:09.922Z,19.47
2022-12-14T23:22:54.965Z,19.37
2022-12-14T23:25:40.170Z,19.23
2022-12-14T23:28:25.378Z,19.90
2022-12-14T23:31:10.958Z,19.33
2022-12-14T23:33:56.157Z,19.77
2022-12-14T23:36:41.357Z,18.17
2022-12-14T23:39:26.455Z,19.00
2022-12-14T23:42:11.795Z,19.10
2022-12-14T23:44:57.162Z,17.93
2022-12-14T23:47:42.362Z,19.33
2022-12-14T23:50:27.444Z,18.47
2022-12-14T23:53:12.288Z,19.80
2022-12-14T23:55:57.549Z,19.60
2022-12-14T23:58:42.856Z,19.70
